createdAt,value
2022-10-31T00:01:37.655Z,57.10
2022-10-31T00:04:05.353Z,56.90
2022-10-31T00:06:32.044Z,53.80
2022-10-31T00:09:04.794Z,53.90
2022-10-31T00:11:31.338Z,56.10
2022-10-31T00:14:00.398Z,54.10
2022-10-31T00:16:28.884Z,52.70
2022-10-31T00:19:05.188Z,52.00
2022-10-31T00:21:32.771Z,54.10
2022-10-31T00:24:00.823Z,50.00
2022-10-31T00:26:32.137Z,49.70
2022-10-31T00:29:00.312Z,47.80
2022-10-31T00:31:29.205Z,54.70
2022-10-31T00:33:56.096Z,58.90
2022-10-31T00:36:22.505Z,58.30
2022-10-31T00:38:49.380Z,57.30
2022-10-31T00:41:18.424Z,56.60
2022-10-31T00:43:45.218Z,61.70
2022-10-31T00:46:13.586Z,60.10
2022-10-31T00:48:40.360Z,57.30
2022-10-31T00:51:07.418Z,63.20
2022-10-31T00:53:34.254Z,64.20
2022-10-31T00:56:00.709Z,56.80
2022-10-31T00:58:27.139Z,57.10
2022-10-31T01:00:56.906Z,53.50
2022-10-31T01:03:27.585Z,53.80
2022-10-31T01:06:00.389Z,51.70
2022-10-31T01:08:27.230Z,60.70
2022-10-31T01:11:08.540Z,60.20
2022-10-31T01:13:36.207Z,51.90
2022-10-31T01:16:05.578Z,56.80
2022-10-31T01:18:32.075Z,55.70
2022-10-31T01:21:05.702Z,50.40
2022-10-31T01:23:33.095Z,51.30
2022-10-31T01:26:25.413Z,49.50
2022-10-31T01:28:55.737Z,52.70
2022-10-31T01:31:26.773Z,50.70
2022-10-31T01:33:54.984Z,51.50
2022-10-31T01:36:35.533Z,46.60
2022-10-31T01:39:10.155Z,45.20
2022-10-31T01:41:43.201Z,49.20
2022-10-31T01:44:15.730Z,42.50
2022-10-31T01:46:49.471Z,40.10
2022-10-31T01:49:35.433Z,45.00
2022-10-31T01:52:15.132Z,41.10
2022-10-31T01:54:49.558Z,45.10
2022-10-31T01:57:19.363Z,43.60
2022-10-31T02:00:01.915Z,46.50
2022-10-31T02:02:31.497Z,48.80
2022-10-31T02:05:02.853Z,49.80
2022-10-31T02:07:40.825Z,51.70
2022-10-31T02:10:08.183Z,47.90
2022-10-31T02:12:37.198Z,45.60
2022-10-31T02:15:06.056Z,45.60
2022-10-31T02:17:34.116Z,43.60
2022-10-31T02:20:23.803Z,47.70
2022-10-31T02:23:45.204Z,50.10
2022-10-31T02:26:23.660Z,49.80
2022-10-31T02:29:22.964Z,48.00
2022-10-31T02:32:18.059Z,41.30
2022-10-31T02:34:58.692Z,41.90
2022-10-31T02:37:58.617Z,41.40
2022-10-31T02:40:36.955Z,41.90
2022-10-31T02:43:20.820Z,42.30
2022-10-31T02:46:02.948Z,43.10
2022-10-31T02:48:32.370Z,46.10
2022-10-31T02:51:05.155Z,42.00
2022-10-31T02:53:36.403Z,43.00
2022-10-31T02:56:14.803Z,44.70
2022-10-31T02:58:48.851Z,48.60
2022-10-31T03:01:27.741Z,54.10
2022-10-31T03:04:22.636Z,55.80
2022-10-31T03:07:20.061Z,48.60
2022-10-31T03:10:28.955Z,42.90
2022-10-31T03:13:14.158Z,41.80
2022-10-31T03:15:54.914Z,43.30
2022-10-31T03:18:31.908Z,37.20
2022-10-31T03:21:08.207Z,37.50
2022-10-31T03:23:38.481Z,40.50
2022-10-31T03:26:09.180Z,38.80
2022-10-31T03:28:54.440Z,43.10
2022-10-31T03:31:27.416Z,42.80
2022-10-31T03:33:59.590Z,42.60
2022-10-31T03:36:29.340Z,40.40
2022-10-31T03:38:58.714Z,38.80
2022-10-31T03:41:32.598Z,41.70
2022-10-31T03:44:08.830Z,38.00
2022-10-31T03:46:35.688Z,38.50
2022-10-31T03:49:03.278Z,41.00
2022-10-31T03:52:21.717Z,41.90
2022-10-31T03:55:10.271Z,42.20
2022-10-31T03:57:54.189Z,41.60
2022-10-31T04:00:21.238Z,40.60
2022-10-31T04:03:02.401Z,39.80
2022-10-31T04:05:31.651Z,41.50
2022-10-31T04:08:02.698Z,40.80
2022-10-31T04:10:33.167Z,39.70
2022-10-31T04:13:11.229Z,38.90
2022-10-31T04:15:40.137Z,38.00
2022-10-31T04:18:06.897Z,39.80
2022-10-31T04:20:40.226Z,42.50
2022-10-31T04:23:20.008Z,40.70
2022-10-31T04:25:46.582Z,41.40
2022-10-31T04:28:12.985Z,45.00
2022-10-31T04:30:39.432Z,40.30
2022-10-31T04:33:05.881Z,41.40
2022-10-31T04:35:33.144Z,38.50
2022-10-31T04:37:59.571Z,35.80
2022-10-31T04:40:25.971Z,39.90
2022-10-31T04:42:52.392Z,39.90
2022-10-31T04:45:21.202Z,47.50
2022-10-31T04:47:48.084Z,43.20
2022-10-31T04:50:14.482Z,44.70
2022-10-31T04:52:43.262Z,44.10
2022-10-31T04:55:11.444Z,42.30
2022-10-31T04:57:50.644Z,43.10
2022-10-31T05:00:24.117Z,40.60
2022-10-31T05:02:54.662Z,41.20
2022-10-31T05:05:30.344Z,39.30
2022-10-31T05:07:57.707Z,36.00
2022-10-31T05:10:28.150Z,38.90
2022-10-31T05:13:02.305Z,39.90
2022-10-31T05:15:30.009Z,36.20
2022-10-31T05:17:57.872Z,37.70
2022-10-31T05:20:29.105Z,37.30
2022-10-31T05:22:58.136Z,42.30
2022-10-31T05:25:27.966Z,40.00
2022-10-31T05:27:56.774Z,51.60
2022-10-31T05:30:30.283Z,57.70
2022-10-31T05:32:58.191Z,52.50
2022-10-31T05:35:36.332Z,58.10
2022-10-31T05:38:03.362Z,54.40
2022-10-31T05:40:30.245Z,49.30
2022-10-31T05:42:59.705Z,48.60
2022-10-31T05:45:26.944Z,47.00
2022-10-31T05:48:00.115Z,48.40
2022-10-31T05:50:30.873Z,44.40
2022-10-31T05:53:01.845Z,45.00
2022-10-31T05:55:29.948Z,45.80
2022-10-31T05:57:57.459Z,46.20
2022-10-31T06:00:26.480Z,45.90
2022-10-31T06:05:35.655Z,43.90
2022-10-31T06:08:02.659Z,41.10
2022-10-31T06:10:29.526Z,40.50
2022-10-31T06:12:56.151Z,41.30
2022-10-31T06:15:24.479Z,42.90
2022-10-31T06:18:04.359Z,43.00
2022-10-31T06:20:31.876Z,36.30
2022-10-31T06:22:58.939Z,35.50
2022-10-31T06:25:26.061Z,36.30
2022-10-31T06:27:52.669Z,38.70
2022-10-31T06:30:19.444Z,34.50
2022-10-31T06:32:45.880Z,29.00
2022-10-31T06:35:12.512Z,26.80
2022-10-31T06:37:39.005Z,25.70
2022-10-31T06:40:06.243Z,24.40
2022-10-31T06:42:32.686Z,28.20
2022-10-31T06:44:59.070Z,26.70
2022-10-31T06:47:25.482Z,25.80
2022-10-31T06:49:51.912Z,26.90
2022-10-31T06:52:18.388Z,26.20
2022-10-31T06:54:44.784Z,27.10
2022-10-31T06:57:11.235Z,25.70
2022-10-31T06:59:37.625Z,26.50
2022-10-31T07:02:04.177Z,29.20
2022-10-31T07:04:30.695Z,29.00
2022-10-31T07:06:57.424Z,26.70
2022-10-31T07:09:23.969Z,24.70
2022-10-31T07:11:53.982Z,29.80
2022-10-31T07:14:20.526Z,25.90
2022-10-31T07:16:51.677Z,21.90
2022-10-31T07:19:18.683Z,22.30
2022-10-31T07:21:45.204Z,22.10
2022-10-31T07:24:11.575Z,20.10
2022-10-31T07:26:38.005Z,21.70
2022-10-31T07:29:04.635Z,21.70
2022-10-31T07:31:31.014Z,21.70
2022-10-31T07:33:57.476Z,22.40
2022-10-31T07:36:23.916Z,23.20
2022-10-31T07:38:50.849Z,21.60
2022-10-31T07:41:17.300Z,22.00
2022-10-31T07:43:43.786Z,22.70
2022-10-31T07:46:10.253Z,26.00
2022-10-31T07:48:36.737Z,20.50
2022-10-31T07:51:03.285Z,21.60
2022-10-31T07:53:29.879Z,20.40
2022-10-31T07:55:56.337Z,21.80
2022-10-31T07:58:22.723Z,24.20
2022-10-31T08:00:49.349Z,23.90
2022-10-31T08:03:19.220Z,24.40
2022-10-31T08:05:47.073Z,23.30
2022-10-31T08:08:14.815Z,25.90
2022-10-31T08:10:41.892Z,24.00
2022-10-31T08:13:13.108Z,24.80
2022-10-31T08:15:42.245Z,24.00
2022-10-31T08:18:15.816Z,24.30
2022-10-31T08:20:44.320Z,25.70
2022-10-31T08:23:12.985Z,52.10
2022-10-31T08:25:40.074Z,51.10
2022-10-31T08:28:08.086Z,41.20
2022-10-31T08:30:37.248Z,30.10
2022-10-31T08:33:11.785Z,29.90
2022-10-31T08:35:38.420Z,28.00
2022-10-31T08:38:05.557Z,27.70
2022-10-31T08:40:33.547Z,29.20
2022-10-31T08:43:03.412Z,28.40
2022-10-31T08:45:32.001Z,26.70
2022-10-31T08:48:05.686Z,27.30
2022-10-31T08:50:34.705Z,25.50
2022-10-31T08:53:05.956Z,26.50
2022-10-31T08:55:37.789Z,23.60
2022-10-31T08:58:08.137Z,24.10
2022-10-31T09:00:36.095Z,24.10
2022-10-31T09:03:06.810Z,22.50
2022-10-31T09:05:34.471Z,26.00
2022-10-31T09:08:04.207Z,28.90
2022-10-31T09:10:33.946Z,23.80
2022-10-31T09:13:07.270Z,30.70
2022-10-31T09:15:37.501Z,31.40
2022-10-31T09:18:04.599Z,32.40
2022-10-31T09:20:34.235Z,33.60
2022-10-31T09:23:12.001Z,34.90
2022-10-31T09:25:39.196Z,35.90
2022-10-31T09:28:08.235Z,31.10
2022-10-31T09:30:36.605Z,32.40
2022-10-31T09:33:11.576Z,32.80
2022-10-31T09:35:38.419Z,28.80
2022-10-31T09:38:13.592Z,32.10
2022-10-31T09:40:43.958Z,30.30
2022-10-31T09:43:34.106Z,32.40
2022-10-31T09:46:36.913Z,31.40
2022-10-31T09:49:56.272Z,30.50
2022-10-31T09:52:33.376Z,32.00
2022-10-31T09:55:17.028Z,28.90
2022-10-31T09:57:46.084Z,32.30
2022-10-31T10:00:23.304Z,26.60
2022-10-31T10:03:01.798Z,33.30
2022-10-31T10:05:52.374Z,32.40
2022-10-31T10:08:24.724Z,35.10
2022-10-31T10:11:39.457Z,30.50
2022-10-31T10:14:23.792Z,32.40
2022-10-31T10:17:49.603Z,31.50
2022-10-31T10:20:38.457Z,35.10
2022-10-31T10:23:37.020Z,32.60
2022-10-31T10:26:19.096Z,30.80
2022-10-31T10:29:01.123Z,37.60
2022-10-31T10:31:40.920Z,37.60
2022-10-31T10:34:30.347Z,34.80
2022-10-31T10:37:16.186Z,34.60
2022-10-31T10:39:50.437Z,33.20
2022-10-31T10:42:35.728Z,34.50
2022-10-31T10:45:36.724Z,37.30
2022-10-31T10:48:15.650Z,37.70
2022-10-31T10:50:49.966Z,42.90
2022-10-31T10:54:09.480Z,39.80
2022-10-31T10:57:02.677Z,37.10
2022-10-31T10:59:30.337Z,38.30
2022-10-31T11:01:57.099Z,37.40
2022-10-31T11:04:36.151Z,37.20
2022-10-31T11:07:10.562Z,35.60
2022-10-31T11:09:39.015Z,37.80
2022-10-31T11:12:34.752Z,36.80
2022-10-31T11:15:25.013Z,39.00
2022-10-31T11:17:55.599Z,39.70
2022-10-31T11:20:35.641Z,36.60
2022-10-31T11:23:19.466Z,37.70
2022-10-31T11:25:52.401Z,37.70
2022-10-31T11:28:18.878Z,42.10
2022-10-31T11:30:53.883Z,39.40
2022-10-31T11:33:29.899Z,40.00
2022-10-31T11:35:58.206Z,40.20
2022-10-31T11:38:41.785Z,40.40
2022-10-31T11:41:17.101Z,40.80
2022-10-31T11:43:54.406Z,39.90
2022-10-31T11:46:35.349Z,36.90
2022-10-31T11:49:03.230Z,37.30
2022-10-31T11:51:35.727Z,35.10
2022-10-31T11:54:05.142Z,40.30
2022-10-31T11:56:43.069Z,86.60
2022-10-31T11:59:24.460Z,101.00
2022-10-31T12:01:54.319Z,112.60
2022-10-31T12:04:45.095Z,135.10
2022-10-31T12:07:11.647Z,102.10
2022-10-31T12:09:39.611Z,59.30
2022-10-31T12:12:49.351Z,51.70
2022-10-31T12:15:30.265Z,45.00
2022-10-31T12:18:32.578Z,44.10
2022-10-31T12:21:58.897Z,46.00
2022-10-31T12:24:54.653Z,47.40
2022-10-31T12:28:14.807Z,48.00
2022-10-31T12:31:17.148Z,39.70
2022-10-31T12:33:55.912Z,37.90
2022-10-31T12:36:52.623Z,42.30
2022-10-31T12:40:00.515Z,43.60
2022-10-31T12:43:10.032Z,48.80
2022-10-31T12:46:00.149Z,44.20
2022-10-31T12:49:18.259Z,43.00
2022-10-31T12:52:08.907Z,42.40
2022-10-31T12:55:09.268Z,42.40
2022-10-31T12:57:58.196Z,44.00
2022-10-31T13:00:30.471Z,44.40
2022-10-31T13:03:21.742Z,43.90
2022-10-31T13:05:57.569Z,42.90
2022-10-31T13:08:41.636Z,45.90
2022-10-31T13:11:19.663Z,47.20
2022-10-31T13:14:24.644Z,47.00
2022-10-31T13:16:51.413Z,45.30
2022-10-31T13:19:23.541Z,48.30
2022-10-31T13:22:03.883Z,47.40
2022-10-31T13:24:47.709Z,45.00
2022-10-31T13:27:23.517Z,40.40
2022-10-31T13:30:04.183Z,46.00
2022-10-31T13:32:45.801Z,46.60
2022-10-31T13:35:25.540Z,45.60
2022-10-31T13:38:35.877Z,46.00
2022-10-31T13:41:33.910Z,44.90
2022-10-31T13:44:25.183Z,40.60
2022-10-31T13:46:54.132Z,43.60
2022-10-31T13:49:29.405Z,43.50
2022-10-31T13:52:15.107Z,47.10
2022-10-31T13:54:48.342Z,38.40
2022-10-31T13:57:23.350Z,42.70
2022-10-31T13:59:58.683Z,43.80
2022-10-31T14:02:37.408Z,44.60
2022-10-31T14:05:35.635Z,43.80
2022-10-31T14:08:16.271Z,40.80
2022-10-31T14:10:53.681Z,45.50
2022-10-31T14:13:32.010Z,45.90
2022-10-31T14:16:05.179Z,43.20
2022-10-31T14:18:36.436Z,44.80
2022-10-31T14:21:35.520Z,51.40
2022-10-31T14:24:02.013Z,48.40
2022-10-31T14:26:35.307Z,43.70
2022-10-31T14:29:28.952Z,37.90
2022-10-31T14:32:13.471Z,110.00
2022-10-31T14:34:51.755Z,95.10
2022-10-31T14:37:33.326Z,84.20
2022-10-31T14:40:50.784Z,71.10
2022-10-31T14:43:38.073Z,69.90
2022-10-31T14:46:36.649Z,60.10
2022-10-31T14:49:27.343Z,53.90
2022-10-31T14:51:54.042Z,51.20
2022-10-31T14:54:31.378Z,48.10
2022-10-31T14:57:05.782Z,42.40
2022-10-31T14:59:39.978Z,67.10
2022-10-31T15:02:29.485Z,47.50
2022-10-31T15:04:57.480Z,43.60
2022-10-31T15:07:27.127Z,42.60
2022-10-31T15:10:07.272Z,49.50
2022-10-31T15:12:39.336Z,65.70
2022-10-31T15:15:21.305Z,47.60
2022-10-31T15:17:55.968Z,71.00
2022-10-31T15:20:27.302Z,80.50
2022-10-31T15:22:58.790Z,70.70
2022-10-31T15:25:32.787Z,63.70
2022-10-31T15:27:59.558Z,69.20
2022-10-31T15:30:29.782Z,69.20
2022-10-31T15:32:58.679Z,71.70
2022-10-31T15:35:31.433Z,63.70
2022-10-31T15:38:00.538Z,71.50
2022-10-31T15:40:29.046Z,81.10
2022-10-31T15:43:05.801Z,80.50
2022-10-31T15:45:32.495Z,66.60
2022-10-31T15:48:05.609Z,60.70
2022-10-31T15:50:41.325Z,72.60
2022-10-31T15:53:21.977Z,76.40
2022-10-31T15:56:02.924Z,84.80
2022-10-31T15:58:40.868Z,71.60
2022-10-31T16:01:29.250Z,79.50
2022-10-31T16:04:27.203Z,78.10
2022-10-31T16:07:23.501Z,70.40
2022-10-31T16:09:58.581Z,61.30
2022-10-31T16:12:35.578Z,56.30
2022-10-31T16:15:04.198Z,57.90
2022-10-31T16:17:31.503Z,56.40
2022-10-31T16:20:01.777Z,56.80
2022-10-31T16:22:33.768Z,50.40
2022-10-31T16:25:13.504Z,49.90
2022-10-31T16:27:41.561Z,50.20
2022-10-31T16:30:48.000Z,46.40
2022-10-31T16:33:34.280Z,45.40
2022-10-31T16:36:29.950Z,42.50
2022-10-31T16:38:50.377Z,42.00
2022-10-31T16:41:16.780Z,40.80
2022-10-31T16:43:43.147Z,39.60
2022-10-31T16:48:47.067Z,42.10
2022-10-31T16:51:13.662Z,41.60
2022-10-31T16:53:46.417Z,45.10
2022-10-31T16:56:19.139Z,47.70
2022-10-31T16:58:46.004Z,48.60
2022-10-31T17:01:13.939Z,52.80
2022-10-31T17:03:41.010Z,61.90
2022-10-31T17:06:13.259Z,62.90
2022-10-31T17:08:39.865Z,68.40
2022-10-31T17:11:09.712Z,84.50
2022-10-31T17:13:36.193Z,96.20
2022-10-31T17:16:04.253Z,92.00
2022-10-31T17:18:31.063Z,94.40
2022-10-31T17:21:00.245Z,95.40
2022-10-31T17:23:28.835Z,80.40
2022-10-31T17:25:56.536Z,75.20
2022-10-31T17:28:23.066Z,67.60
2022-10-31T17:30:49.548Z,64.80
2022-10-31T17:33:17.186Z,53.60
2022-10-31T17:35:45.253Z,50.80
2022-10-31T17:38:12.797Z,45.70
2022-10-31T17:40:42.131Z,42.50
2022-10-31T17:43:11.227Z,41.40
2022-10-31T17:45:42.396Z,44.80
2022-10-31T17:48:13.021Z,44.60
2022-10-31T17:50:39.742Z,46.30
2022-10-31T17:53:06.211Z,49.80
2022-10-31T17:55:36.188Z,46.30
2022-10-31T17:58:05.331Z,52.80
2022-10-31T18:00:32.242Z,49.90
2022-10-31T18:02:59.101Z,50.20
2022-10-31T18:05:25.818Z,48.30
2022-10-31T18:07:52.270Z,51.60
2022-10-31T18:10:18.856Z,50.90
2022-10-31T18:12:45.507Z,52.90
2022-10-31T18:15:11.963Z,55.50
2022-10-31T18:17:41.929Z,53.80
2022-10-31T18:20:10.289Z,57.50
2022-10-31T18:22:36.778Z,65.50
2022-10-31T18:25:04.447Z,73.10
2022-10-31T18:27:30.905Z,66.80
2022-10-31T18:29:57.356Z,62.50
2022-10-31T18:32:23.725Z,66.80
2022-10-31T18:34:50.286Z,61.40
2022-10-31T18:37:16.779Z,49.50
2022-10-31T18:39:43.196Z,46.40
2022-10-31T18:42:09.733Z,48.20
2022-10-31T18:44:36.118Z,46.10
2022-10-31T18:47:02.551Z,46.40
2022-10-31T18:49:32.647Z,41.60
2022-10-31T18:51:59.814Z,44.10
2022-10-31T18:54:26.680Z,43.00
2022-10-31T18:56:53.216Z,50.30
2022-10-31T18:59:19.599Z,56.10
2022-10-31T19:01:46.738Z,54.70
2022-10-31T19:04:14.102Z,53.50
2022-10-31T19:06:40.677Z,54.00
2022-10-31T19:09:11.370Z,57.90
2022-10-31T19:11:39.149Z,57.50
2022-10-31T19:14:08.400Z,56.30
2022-10-31T19:16:35.668Z,55.30
2022-10-31T19:19:03.029Z,63.50
2022-10-31T19:21:31.151Z,71.00
2022-10-31T19:23:59.501Z,65.80
2022-10-31T19:26:27.599Z,72.20
2022-10-31T19:28:56.637Z,63.90
2022-10-31T19:31:23.199Z,58.20
2022-10-31T19:33:49.686Z,47.50
2022-10-31T19:36:19.537Z,45.60
2022-10-31T19:38:49.221Z,48.50
2022-10-31T19:41:18.751Z,45.30
2022-10-31T19:43:45.447Z,40.20
2022-10-31T19:46:22.013Z,39.80
2022-10-31T19:48:54.795Z,39.50
2022-10-31T19:51:22.342Z,36.80
2022-10-31T19:53:52.447Z,33.90
2022-10-31T19:56:25.431Z,31.00
2022-10-31T19:58:52.319Z,29.80
2022-10-31T20:01:23.155Z,27.70
2022-10-31T20:03:50.595Z,28.70
2022-10-31T20:06:34.195Z,28.30
2022-10-31T20:09:04.239Z,29.30
2022-10-31T20:11:31.397Z,24.60
2022-10-31T20:14:00.206Z,28.10
2022-10-31T20:16:28.038Z,26.10
2022-10-31T20:18:56.415Z,24.90
2022-10-31T20:21:26.531Z,25.00
2022-10-31T20:24:01.445Z,25.30
2022-10-31T20:26:30.876Z,27.70
2022-10-31T20:28:59.296Z,23.80
2022-10-31T20:31:30.462Z,25.70
2022-10-31T20:33:57.261Z,28.50
2022-10-31T20:36:24.377Z,27.30
2022-10-31T20:38:52.605Z,26.80
2022-10-31T20:41:19.840Z,26.00
2022-10-31T20:43:47.312Z,25.50
2022-10-31T20:46:24.667Z,26.10
2022-10-31T20:48:52.092Z,26.30
2022-10-31T20:51:25.520Z,26.20
2022-10-31T20:53:54.081Z,25.20
2022-10-31T20:56:23.869Z,29.90
2022-10-31T20:58:51.147Z,29.80
2022-10-31T21:01:21.673Z,28.70
2022-10-31T21:03:49.777Z,28.30
2022-10-31T21:06:18.536Z,31.00
2022-10-31T21:08:45.817Z,30.30
2022-10-31T21:11:19.465Z,34.10
2022-10-31T21:13:47.979Z,33.40
2022-10-31T21:16:25.626Z,43.40
2022-10-31T21:18:53.039Z,43.90
2022-10-31T21:21:29.207Z,42.70
2022-10-31T21:24:06.620Z,42.60
2022-10-31T21:26:38.227Z,40.00
2022-10-31T21:29:06.501Z,36.50
2022-10-31T21:31:35.229Z,34.40
2022-10-31T21:34:01.936Z,30.30
2022-10-31T21:36:28.513Z,30.70
2022-10-31T21:38:56.091Z,30.90
2022-10-31T21:41:23.831Z,28.30
2022-10-31T21:43:54.167Z,29.70
2022-10-31T21:46:31.433Z,32.40
2022-10-31T21:48:58.616Z,30.20
2022-10-31T21:51:31.788Z,28.60
2022-10-31T21:54:17.456Z,30.50
2022-10-31T21:56:44.482Z,29.20
2022-10-31T21:59:11.768Z,28.50
